createdAt,value
2023-04-27T00:04:33.100Z,75.37
2023-04-27T00:14:36.479Z,75.32
2023-04-27T00:24:39.908Z,75.33
2023-04-27T00:34:42.933Z,75.97
2023-04-27T00:44:47.158Z,76.24
2023-04-27T00:54:52.480Z,76.43
2023-04-27T01:04:57.691Z,77.18
2023-04-27T01:15:00.761Z,77.07
2023-04-27T01:25:04.243Z,76.99
2023-04-27T01:35:08.021Z,77.64
2023-04-27T01:45:11.860Z,77.60
2023-04-27T01:55:15.067Z,77.53
2023-04-27T02:05:18.571Z,77.67
2023-04-27T02:15:22.734Z,77.54
2023-04-27T02:25:26.082Z,77.02
2023-04-27T02:35:29.146Z,77.42
2023-04-27T02:45:38.920Z,78.15
2023-04-27T02:55:48.372Z,78.80
2023-04-27T03:05:51.631Z,78.49
2023-04-27T03:15:55.052Z,77.53
2023-04-27T03:25:58.206Z,77.43
2023-04-27T03:36:01.936Z,77.67
2023-04-27T03:46:05.098Z,77.42
2023-04-27T03:56:08.378Z,77.39
2023-04-27T04:06:12.200Z,77.48
2023-04-27T04:16:16.038Z,77.44
2023-04-27T04:26:20.675Z,77.28
2023-04-27T04:36:24.285Z,77.12
2023-04-27T04:46:31.028Z,77.32
2023-04-27T04:56:34.452Z,77.23
2023-04-27T05:06:38.268Z,77.62
2023-04-27T05:16:41.476Z,77.58
2023-04-27T05:26:44.755Z,76.69
2023-04-27T05:36:48.012Z,76.07
2023-04-27T05:46:51.308Z,75.14
2023-04-27T05:56:54.446Z,74.26
2023-04-27T06:06:58.189Z,73.58
2023-04-27T06:17:02.085Z,73.16
2023-04-27T06:27:06.766Z,72.44
2023-04-27T06:37:09.978Z,71.15
2023-04-27T06:47:13.389Z,69.54
2023-04-27T06:57:16.747Z,67.34
2023-04-27T07:07:19.817Z,64.08
2023-04-27T07:17:22.992Z,58.75
2023-04-27T07:27:26.810Z,56.32
2023-04-27T07:37:30.401Z,57.55
2023-04-27T07:47:33.643Z,56.91
2023-04-27T07:57:36.826Z,56.73
2023-04-27T08:07:44.642Z,56.36
2023-04-27T08:17:48.451Z,57.50
2023-04-27T08:27:51.687Z,57.03
2023-04-27T08:37:54.882Z,56.03
2023-04-27T08:47:58.249Z,53.96
2023-04-27T08:58:01.957Z,53.00
2023-04-27T09:08:08.375Z,52.20
2023-04-27T09:18:21.749Z,51.08
2023-04-27T09:28:30.978Z,49.88
2023-04-27T09:38:34.536Z,47.12
2023-04-27T09:48:39.403Z,47.68
2023-04-27T09:58:46.505Z,46.87
2023-04-27T10:08:51.494Z,48.02
2023-04-27T10:18:58.337Z,46.15
2023-04-27T10:29:09.291Z,46.69
2023-04-27T10:39:20.341Z,46.43
2023-04-27T10:49:24.159Z,45.67
2023-04-27T10:59:27.542Z,44.65
2023-04-27T11:09:30.616Z,47.82
2023-04-27T11:20:05.190Z,48.15
2023-04-27T11:30:20.371Z,48.14
2023-04-27T11:40:28.966Z,46.42
2023-04-27T11:50:32.183Z,47.02
2023-04-27T12:00:36.187Z,44.99
2023-04-27T12:10:40.257Z,44.64
2023-04-27T12:20:43.499Z,44.00
2023-04-27T12:30:46.797Z,42.91
2023-04-27T12:40:50.089Z,43.25
2023-04-27T12:50:53.227Z,44.09
2023-04-27T13:01:00.173Z,45.58
2023-04-27T13:11:03.726Z,43.56
2023-04-27T13:21:08.232Z,44.23
2023-04-27T13:31:12.117Z,43.31
2023-04-27T13:41:15.506Z,44.33
2023-04-27T13:51:18.739Z,44.91
2023-04-27T14:01:22.700Z,44.12
2023-04-27T14:11:26.438Z,43.39
2023-04-27T14:21:29.936Z,44.58
2023-04-27T14:31:33.067Z,44.65
2023-04-27T14:41:39.897Z,43.80
2023-04-27T14:51:43.724Z,43.83
2023-04-27T15:01:47.090Z,45.03
2023-04-27T15:11:50.197Z,44.26
2023-04-27T15:21:53.255Z,44.11
2023-04-27T15:31:56.481Z,44.55
2023-04-27T15:41:59.953Z,46.35
2023-04-27T15:52:03.847Z,47.52
2023-04-27T16:02:07.192Z,46.76
2023-04-27T16:12:10.502Z,48.91
2023-04-27T16:22:13.607Z,48.50
2023-04-27T16:32:20.159Z,49.07
2023-04-27T16:42:23.931Z,49.90
2023-04-27T16:52:27.035Z,50.30
2023-04-27T17:02:31.024Z,49.86
2023-04-27T17:12:36.337Z,50.82
2023-04-27T17:22:39.492Z,51.54
2023-04-27T17:32:42.639Z,53.20
2023-04-27T17:42:45.960Z,55.18
2023-04-27T17:52:51.231Z,56.75
2023-04-27T18:02:54.538Z,58.81
2023-04-27T18:12:57.921Z,60.65
2023-04-27T18:23:01.028Z,61.52
2023-04-27T18:33:07.338Z,62.70
2023-04-27T18:43:10.673Z,64.44
2023-04-27T18:53:14.076Z,65.25
2023-04-27T19:03:17.268Z,65.87
2023-04-27T19:13:21.297Z,66.73
2023-04-27T19:23:24.435Z,67.98
2023-04-27T19:33:27.723Z,68.85
2023-04-27T19:43:30.995Z,69.46
2023-04-27T19:53:34.076Z,70.06
2023-04-27T20:03:38.037Z,70.42
2023-04-27T20:13:41.585Z,70.87
2023-04-27T20:23:47.484Z,71.52
2023-04-27T20:33:50.675Z,72.29
2023-04-27T20:43:54.090Z,72.64
2023-04-27T20:53:57.241Z,72.82
2023-04-27T21:04:01.391Z,73.24
2023-04-27T21:14:05.146Z,73.50
2023-04-27T21:24:08.909Z,73.59
2023-04-27T21:34:12.055Z,74.02
2023-04-27T21:44:15.788Z,74.27
2023-04-27T21:54:19.220Z,74.65
2023-04-27T22:04:23.318Z,74.76
2023-04-27T22:14:26.930Z,75.15
2023-04-27T22:24:30.133Z,75.60
2023-04-27T22:34:33.784Z,76.16
2023-04-27T22:44:37.131Z,76.62
2023-04-27T22:54:40.202Z,76.83
2023-04-27T23:04:43.988Z,77.37
2023-04-27T23:14:47.438Z,77.77
2023-04-27T23:24:50.995Z,77.74
2023-04-27T23:34:57.508Z,77.64
2023-04-27T23:45:01.837Z,77.60
2023-04-27T23:55:05.385Z,77.67
